Date,TemperatureHighF,TemperatureAvgF,TemperatureLowF,DewpointHighF,DewpointAvgF,DewpointLowF,HumidityHigh,HumidityAvg,HumidityLow,PressureMaxIn,PressureMinIn,WindSpeedMaxMPH,WindSpeedAvgMPH,GustSpeedMaxMPH,PrecipitationSumIn
2013-1-1,16.3,2.8,-14.7,12.6,-2.6,-19.1,86,78,55,30.41,30.22,7,1,8,0.00
2013-1-2,22.6,12.1,2.7,20.2,8.5,-0.5,93,85,74,30.22,30.07,7,1,8,0.00
2013-1-3,23.1,14.1,8.9,20.9,10.1,4.9,92,84,75,30.38,30.18,13,3,14,0.00
2013-1-4,29.2,18.0,7.6,18.9,12.7,4.8,89,80,64,30.27,30.17,11,1,13,0.00
2013-1-5,32.2,15.2,4.2,22.8,11.0,1.2,93,84,65,30.24,29.96,11,1,13,0.00
2013-1-6,21.7,14.4,6.5,13.0,10.0,3.3,92,83,68,30.33,30.09,10,2,11,0.00
2013-1-7,35.8,25.9,14.4,27.9,20.4,12.0,92,80,68,30.24,30.02,13,2,18,0.01
2013-1-8,36.6,22.2,8.9,31.8,18.8,6.3,94,87,77,30.10,29.90,11,1,17,0.00
2013-1-9,36.1,29.9,18.0,28.9,24.4,15.6,93,80,63,30.46,30.04,16,2,17,0.00
2013-1-10,40.2,31.1,21.6,34.1,25.2,19.1,96,80,47,30.46,29.83,11,1,11,0.16
2013-1-11,42.6,37.4,34.7,42.1,36.5,33.7,98,96,95,29.83,29.48,10,1,16,0.01
2013-1-12,42.4,22.7,7.9,40.8,17.5,1.0,95,80,71,30.15,29.48,27,5,27,0.00
2013-1-13,10.7,6.7,3.3,4.9,1.2,-1.5,83,78,71,30.39,30.12,14,4,14,0.00
2013-1-14,19.2,8.0,2.0,11.8,4.1,-1.1,89,84,70,30.53,30.38,12,1,13,0.00
2013-1-15,31.5,17.1,4.5,19.8,11.0,1.5,93,78,58,30.46,30.02,14,2,17,0.00
2013-1-16,39.7,27.1,18.6,33.2,21.2,8.4,92,78,61,30.27,29.80,17,4,20,0.01
2013-1-17,23.2,14.9,8.0,14.5,7.2,0.5,81,71,53,30.50,30.27,14,3,17,0.00
2013-1-18,45.2,30.5,17.7,34.6,24.4,12.9,89,78,62,30.43,29.84,17,2,18,0.00
2013-1-19,42.1,28.3,4.3,33.8,22.6,-3.5,93,79,58,30.26,29.76,37,5,37,0.00
2013-1-20,11.2,4.9,1.5,1.2,-2.9,-5.8,76,70,53,30.48,30.24,21,6,21,0.00
2013-1-21,1.4,-4.1,-9.0,-5.2,-11.7,-16.3,79,69,63,30.46,30.37,24,7,24,0.00
2013-1-22,7.8,-1.5,-8.0,-0.6,-8.4,-13.0,80,72,61,30.54,30.40,12,2,13,0.00
2013-1-23,18.0,10.0,-2.5,11.1,2.4,-12.9,85,71,53,30.69,30.25,26,5,29,0.00
2013-1-24,14.1,3.0,-4.5,4.2,-7.3,-14.0,67,62,50,30.79,30.35,12,2,12,0.00
2013-1-25,22.4,15.1,5.4,15.1,7.4,-0.3,83,71,57,30.40,30.06,24,5,26,0.00
2013-1-26,25.4,11.6,-1.6,14.2,3.6,-5.2,86,71,53,30.48,30.29,10,2,11,0.00
2013-1-27,32.1,29.6,25.2,30.5,23.3,14.0,96,78,59,30.29,29.86,11,2,14,0.01
2013-1-28,33.6,31.8,31.2,32.8,30.8,29.9,97,96,95,29.99,29.67,3,0,3,0.00
2013-1-29,36.4,33.6,29.0,35.6,31.8,24.8,97,93,84,29.74,29.58,22,4,23,0.10
2013-1-30,29.0,20.5,12.1,25.1,16.0,6.4,91,82,73,29.81,29.60,28,11,28,0.00
2013-1-31,11.9,3.5,-5.7,6.4,-2.1,-11.8,83,77,71,30.40,29.81,22,8,26,0.00
2013-2-1,6.6,-2.0,-9.5,3.3,-8.0,-15.0,86,75,60,30.45,30.18,12,3,14,0.00
2013-2-2,12.1,8.2,5.7,8.6,4.0,2.0,87,83,70,30.27,30.07,9,2,10,0.00
2013-2-3,15.2,12.5,6.8,11.8,7.8,2.5,89,81,68,30.19,30.03,17,4,18,0.00
2013-2-4,17.1,11.5,4.3,10.6,5.7,-1.2,89,78,53,30.16,29.96,10,2,10,0.03
2013-2-5,30.1,20.8,6.9,25.7,17.3,4.0,93,86,76,30.19,29.80,20,3,20,0.00
2013-2-6,33.3,17.3,-1.4,29.8,13.7,-4.8,93,86,73,30.22,30.02,7,1,9,0.01
2013-2-7,30.6,27.3,25.0,28.9,25.5,21.6,96,93,87,30.30,30.03,16,4,17,0.00
2013-2-8,26.7,24.0,21.2,22.1,19.5,15.7,89,83,73,30.45,30.30,9,2,11,0.00
2013-2-9,29.7,27.1,23.9,26.8,24.2,20.9,91,88,86,30.36,30.02,15,3,17,0.00
2013-2-10,37.2,32.6,29.5,36.3,30.8,26.6,97,93,88,30.03,29.32,12,2,18,0.06
2013-2-11,33.7,26.5,19.7,32.4,23.2,14.6,95,87,79,30.12,29.34,26,7,26,0.01
2013-2-12,36.7,24.9,17.7,28.9,20.0,13.5,94,82,64,30.15,29.91,15,2,15,0.00
2013-2-13,38.6,27.4,18.1,34.5,23.9,15.7,94,87,72,29.91,29.63,8,1,10,0.01
2013-2-14,36.8,29.7,16.8,33.3,24.9,6.3,94,83,55,30.22,29.63,18,6,20,0.02
2013-2-15,16.8,11.7,6.4,7.9,4.5,1.1,81,72,60,30.39,30.22,18,4,26,0.00
2013-2-16,19.9,7.7,-0.2,9.0,2.3,-3.4,89,79,60,30.36,30.25,10,2,10,0.00
2013-2-17,32.4,18.4,2.4,21.8,11.9,-0.7,88,76,62,30.26,29.93,10,2,15,0.00
2013-2-18,36.0,24.4,7.2,31.8,19.6,3.5,90,82,72,29.84,29.61,22,6,23,0.00
2013-2-19,7.1,4.0,0.1,3.7,-1.3,-6.6,86,78,68,30.47,29.84,25,8,26,0.00
2013-2-20,15.9,3.4,-6.4,6.3,-2.5,-10.5,86,76,63,30.57,30.46,11,2,12,0.00
2013-2-21,21.5,11.2,-0.2,16.7,6.0,-3.6,89,80,67,30.55,30.13,9,1,11,0.00
2013-2-22,27.1,22.7,19.4,22.2,19.6,16.7,92,88,75,30.13,29.92,9,2,11,0.09
2013-2-23,24.7,18.1,2.5,20.1,14.7,-0.5,90,87,79,30.08,29.94,8,2,10,0.00
2013-2-24,35.4,15.3,-4.2,23.3,9.4,-7.8,89,78,60,30.21,30.07,10,0,10,0.12
2013-2-25,36.9,29.7,21.9,29.4,25.3,19.7,92,84,73,30.20,30.08,8,1,9,0.02
2013-2-26,35.8,28.8,21.1,27.4,24.3,19.0,94,83,71,30.10,29.87,20,4,22,0.00
2013-2-27,35.6,31.3,29.2,29.2,25.8,23.5,90,80,71,30.03,29.86,24,7,24,0.00
2013-2-28,30.3,28.6,25.2,26.7,22.5,18.7,87,78,74,30.25,30.03,17,6,18,0.00
2013-3-1,29.1,22.7,11.0,18.8,15.8,7.7,87,75,63,30.40,30.25,17,4,19,0.00
2013-3-2,28.0,13.3,0.8,12.3,6.1,-2.4,91,75,41,30.43,30.28,10,1,13,0.00
2013-3-3,33.8,20.3,8.3,14.5,9.9,5.0,88,67,32,30.29,30.09,11,1,11,0.00
2013-3-4,27.1,25.0,21.5,23.2,17.8,11.8,92,75,58,30.12,30.00,13,2,15,0.00
2013-3-5,28.2,25.6,23.0,24.2,22.9,20.4,93,89,83,30.33,30.04,15,3,18,0.02
2013-3-6,26.5,19.5,2.8,20.8,14.8,-0.4,92,82,69,30.48,30.33,17,5,19,0.01
2013-3-7,33.2,12.2,-5.0,21.1,6.5,-8.8,89,78,60,30.52,30.42,7,1,8,0.08
2013-3-8,41.6,27.4,13.7,31.5,22.3,11.3,94,82,66,30.46,30.19,9,2,11,0.02
2013-3-9,36.0,34.0,33.4,34.7,31.9,28.5,95,92,81,30.19,29.91,11,3,13,0.47
2013-3-10,35.1,33.6,30.1,34.3,32.0,29.1,97,94,87,29.95,29.76,20,7,22,0.12
2013-3-11,30.1,27.8,22.0,29.1,26.2,19.0,96,94,88,29.92,29.77,19,7,24,0.00
2013-3-12,28.1,23.5,17.7,21.9,19.1,14.8,90,83,70,30.23,29.92,20,5,24,0.03
2013-3-13,29.4,19.9,13.4,16.9,12.9,9.7,89,75,45,30.46,30.23,14,4,17,0.02
2013-3-14,39.1,26.5,15.1,29.5,22.0,12.1,92,84,67,30.39,30.09,7,1,8,0.13
2013-3-15,35.2,29.9,23.7,32.2,28.0,21.9,95,92,88,30.10,29.85,9,1,13,0.02
2013-3-16,31.3,24.6,17.0,30.0,20.0,10.2,95,83,63,30.30,29.89,19,7,22,0.00
2013-3-17,30.1,19.1,7.7,22.0,11.1,2.8,81,71,55,30.33,30.00,11,3,15,0.00
2013-3-18,30.0,23.0,11.5,28.1,18.4,7.3,94,83,70,30.00,29.69,26,5,26,0.00
2013-3-19,22.2,12.5,7.0,9.7,5.1,1.0,84,73,56,30.28,29.90,23,7,23,0.00
2013-3-20,18.7,10.7,4.9,5.5,1.3,-1.8,75,65,54,30.32,30.22,22,7,27,0.00
2013-3-21,24.2,9.6,-6.3,9.8,1.9,-10.1,86,72,52,30.24,30.15,13,2,13,0.00
2013-3-22,34.4,14.4,-3.0,16.8,6.0,-6.6,87,71,46,30.22,30.14,9,1,9,0.00
2013-3-23,36.7,24.8,10.2,21.9,16.3,7.2,90,71,50,30.23,30.14,11,2,14,0.00
2013-3-24,31.9,29.0,26.0,25.8,21.7,19.4,80,74,68,30.17,29.99,19,4,22,0.00
2013-3-25,35.6,28.0,21.3,23.0,19.4,16.6,83,70,52,30.28,30.05,19,7,21,0.00
2013-3-26,37.3,27.7,22.1,26.0,20.8,17.9,86,76,55,30.38,30.28,11,2,13,0.00
2013-3-27,41.8,23.7,12.2,22.4,15.9,9.6,93,76,39,30.43,30.38,16,1,16,0.00
2013-3-28,42.5,29.4,14.5,27.5,20.5,12.1,92,72,44,30.44,30.36,6,1,6,0.00
2013-3-29,49.0,32.8,21.2,36.2,26.0,19.2,93,78,51,30.38,30.18,8,1,9,0.00
2013-3-30,48.7,41.1,33.5,43.0,36.3,30.6,96,83,72,30.18,29.90,14,2,14,0.10
2013-3-31,39.1,34.0,31.8,32.5,30.2,18.3,96,87,45,29.94,29.86,22,4,28,0.00
2013-4-1,32.4,25.8,19.3,18.9,15.6,13.3,78,65,48,30.33,30.11,18,7,20,0.00
2013-4-2,34.4,25.4,15.4,18.8,16.7,12.7,92,71,46,30.44,30.33,21,4,21,0.00
2013-4-3,43.6,27.8,14.3,28.8,19.4,11.9,92,73,44,30.52,30.23,13,2,18,0.00
2013-4-4,50.0,40.5,29.4,37.7,28.4,23.2,86,62,44,30.23,30.09,16,4,20,0.01
2013-4-5,44.1,31.3,22.8,32.0,23.8,20.3,91,76,43,30.29,30.18,9,2,10,0.03
2013-4-6,57.9,44.1,35.2,48.8,36.4,25.1,93,75,61,30.00,29.53,16,4,22,0.08
2013-4-7,49.6,38.8,35.3,39.4,33.7,31.2,91,82,66,30.00,29.78,11,3,15,0.00
2013-4-8,50.4,43.8,39.5,45.7,40.7,37.5,95,89,83,30.05,29.71,12,2,14,0.36
2013-4-9,40.0,38.5,35.0,38.0,36.5,33.2,95,92,91,30.16,29.93,18,4,19,1.59
2013-4-10,35.0,32.4,30.1,33.5,30.3,28.2,95,92,89,30.17,29.97,19,4,19,0.32
2013-4-11,35.4,33.3,30.9,33.9,31.1,29.2,95,91,79,29.92,29.67,11,2,19,0.21
2013-4-12,34.5,31.0,28.7,29.9,28.3,26.9,94,90,80,29.90,29.67,16,4,18,0.09
2013-4-13,35.8,31.1,28.3,28.3,26.7,25.2,93,84,67,30.04,29.90,14,3,17,0.03
2013-4-14,39.0,33.4,30.5,37.7,30.5,26.2,96,89,78,30.03,29.55,12,3,13,0.79
2013-4-15,41.8,36.9,31.9,36.8,31.0,26.8,96,80,66,30.05,29.65,22,3,25,0.02
2013-4-16,46.3,36.2,31.9,32.3,28.9,26.6,84,75,54,30.38,30.05,16,4,16,0.00
2013-4-17,38.9,35.6,31.0,35.5,31.4,27.0,94,85,72,30.37,29.83,16,2,16,0.45
2013-4-18,37.0,35.1,31.4,35.4,33.7,29.6,95,94,93,29.89,29.48,18,6,20,0.29
2013-4-19,35.7,32.1,29.2,29.8,27.2,23.3,93,82,64,30.04,29.49,26,8,28,0.01
2013-4-20,43.4,32.0,21.1,26.4,19.5,12.0,89,62,34,30.37,30.04,13,2,14,0.00
2013-4-21,53.9,41.1,33.2,47.1,35.1,24.6,96,80,65,30.40,30.10,14,2,16,0.45
2013-4-22,48.1,40.1,32.9,47.0,38.7,31.4,96,94,92,30.22,30.05,21,4,26,0.43
2013-4-23,39.2,33.8,31.0,31.6,28.8,24.0,95,83,57,30.18,30.08,19,7,21,0.04
2013-4-24,50.9,35.1,22.2,36.4,27.0,20.5,95,75,39,30.14,29.95,17,3,24,0.04
2013-4-25,51.6,38.9,32.4,33.8,29.8,19.8,90,73,29,30.29,30.06,17,3,17,0.01
2013-4-26,73.2,55.0,43.4,48.3,38.6,28.9,85,56,29,30.20,30.06,21,3,22,0.00
2013-4-27,71.7,53.7,41.9,53.2,46.4,39.8,96,79,48,30.18,30.02,13,2,13,0.00
2013-4-28,76.0,60.8,38.8,52.8,47.1,37.0,96,64,40,29.98,29.71,15,2,18,0.00
2013-4-29,74.3,60.5,49.8,58.7,54.2,48.3,97,81,54,29.82,29.60,11,2,13,0.13
2013-4-30,75.8,64.6,51.7,59.9,53.0,41.1,94,69,38,29.96,29.52,15,4,22,0.29
2013-5-1,52.7,43.7,33.7,50.5,40.6,32.0,94,89,82,30.51,29.94,20,7,24,0.73
2013-5-2,33.7,32.9,32.2,32.2,31.6,31.1,96,95,93,30.52,30.46,21,7,22,0.04
2013-5-3,33.8,32.4,30.9,32.1,31.0,29.6,96,94,92,30.45,30.15,19,7,20,0.54
2013-5-4,50.4,39.3,33.0,42.0,35.9,31.7,96,88,72,30.19,30.12,14,5,15,0.34
2013-5-5,63.8,46.2,37.5,51.4,40.1,34.8,91,80,62,30.20,30.10,11,3,11,0.00
2013-5-6,72.6,56.3,40.1,44.9,41.8,38.8,95,66,37,30.11,30.05,2,1,7,0.00
2013-5-7,43.2,43.2,43.2,41.6,41.6,41.6,94,94,94,30.08,30.08,0,0,0,0.00
2013-5-9,57.2,53.6,44.8,56.1,52.4,42.9,97,96,93,30.04,29.94,19,4,20,0.76
2013-5-10,63.6,48.5,40.4,47.1,39.8,32.7,94,75,33,30.11,29.96,20,5,20,0.00
2013-5-11,52.2,45.9,38.0,45.5,32.0,17.5,92,61,27,30.20,29.89,33,9,34,0.01
2013-5-12,55.1,41.7,31.9,31.8,25.3,19.1,82,55,25,30.26,30.15,19,5,24,0.00
2013-5-13,68.7,48.0,28.3,47.5,33.0,24.9,90,61,27,30.19,29.76,13,1,18,0.01
2013-5-14,97.5,71.4,46.4,57.9,47.4,34.3,90,50,17,29.76,29.44,23,2,26,0.00
2013-5-15,74.6,64.8,51.8,54.7,46.3,37.0,85,53,27,29.93,29.65,17,4,19,0.02
2013-5-16,84.4,63.3,45.2,51.3,46.5,43.0,93,62,24,29.94,29.84,10,1,11,0.00
2013-5-17,70.1,57.8,49.9,58.5,53.1,48.0,96,86,51,30.02,29.88,10,1,11,0.09
2013-5-18,81.0,65.2,53.4,66.9,59.0,51.7,96,82,59,30.02,29.83,9,1,14,0.02
2013-5-19,81.8,67.8,61.6,70.1,63.0,58.7,96,85,64,29.85,29.55,24,1,26,0.01
2013-5-20,73.5,65.7,61.2,63.0,60.4,54.4,97,84,59,29.65,29.53,17,2,22,0.00
2013-5-21,65.9,61.2,56.9,60.5,55.7,51.0,94,82,62,29.69,29.53,12,1,14,0.00
2013-5-22,57.6,55.8,51.6,55.5,53.4,48.8,95,92,87,29.93,29.66,15,3,16,0.00
2013-5-23,62.6,52.5,45.1,49.5,41.7,32.9,92,70,34,30.36,29.93,19,6,22,0.00
2013-5-24,68.3,50.1,34.4,50.8,40.0,32.4,95,71,42,30.45,30.25,11,1,11,0.40
2013-5-25,56.4,53.6,51.7,49.7,47.0,42.8,91,78,67,30.33,30.25,11,1,13,0.06
2013-5-26,55.2,50.9,46.1,50.9,44.9,40.1,94,80,67,30.28,30.09,11,1,19,0.01
2013-5-27,56.4,54.1,52.4,54.7,51.7,49.9,96,92,87,30.10,29.85,10,1,13,0.01
2013-5-28,61.4,54.3,52.3,58.7,53.1,51.5,97,96,90,29.86,29.73,5,0,6,0.00
2013-5-29,80.0,64.7,58.5,69.7,62.1,57.5,98,92,69,29.84,29.68,12,0,12,0.65
2013-5-30,75.1,67.3,62.6,67.1,63.9,60.5,97,90,70,29.74,29.55,13,2,17,0.57
2013-5-31,78.0,67.6,56.3,67.0,60.4,51.5,95,79,41,29.65,29.56,16,2,21,0.05
2013-6-1,70.3,58.8,51.0,59.1,54.1,45.7,98,85,58,29.91,29.57,22,2,22,0.01
2013-6-2,61.8,51.4,43.7,46.8,43.2,40.1,94,75,47,30.10,29.91,15,4,18,0.00
2013-6-3,69.2,53.8,39.6,50.9,44.1,38.6,97,74,41,30.12,29.97,7,0,7,0.00
2013-6-4,60.1,55.8,51.8,54.9,51.7,48.6,95,87,66,30.12,30.03,7,0,10,0.00
2013-6-5,59.5,55.3,53.1,57.7,53.9,51.5,97,95,93,30.09,29.94,6,0,6,0.00
2013-6-6,60.1,55.7,53.7,55.4,53.6,52.2,97,93,81,30.03,29.95,11,2,12,0.00
2013-6-7,67.6,56.5,51.5,55.1,52.1,49.5,97,86,60,30.07,29.95,6,1,7,0.00
2013-6-8,71.3,59.7,51.5,59.9,54.2,50.4,97,83,57,29.96,29.91,9,0,9,0.00
2013-6-9,71.3,60.7,55.6,64.3,57.4,53.4,95,89,76,29.94,29.76,11,1,12,0.00
2013-6-10,74.8,64.5,57.3,64.4,60.6,56.2,97,88,64,29.88,29.80,8,0,8,0.01
2013-6-11,83.3,66.1,53.3,70.3,61.2,52.5,98,86,58,29.92,29.80,11,0,11,0.00
2013-6-12,76.5,68.7,63.9,69.6,65.5,61.8,97,90,77,29.89,29.69,12,1,17,0.13
2013-6-13,76.4,65.0,55.2,62.2,56.5,52.7,94,76,50,30.08,29.85,13,2,15,0.00
2013-6-14,75.8,65.0,54.7,63.3,58.3,52.6,95,80,61,30.12,29.90,8,0,11,0.00
2013-6-15,79.1,68.3,60.3,69.5,64.2,59.1,97,87,66,29.97,29.79,11,1,15,0.08
2013-6-16,83.0,67.3,54.4,64.3,55.2,47.7,98,71,31,29.94,29.86,17,1,18,0.00
2013-6-17,82.0,65.9,53.9,61.2,54.9,51.5,97,72,37,29.98,29.89,14,1,16,0.00
2013-6-18,76.2,65.1,56.3,60.0,57.6,53.9,93,78,54,30.08,29.97,8,0,10,0.01
2013-6-19,82.8,66.3,54.7,63.9,57.6,52.8,94,76,47,30.12,29.98,8,0,10,0.00
2013-6-20,88.7,72.3,60.9,70.5,63.9,58.8,96,77,47,30.05,29.92,13,0,13,0.14
2013-6-21,81.7,72.3,63.6,72.9,66.5,62.1,96,82,66,30.01,29.77,22,1,27,0.77
2013-6-22,87.8,72.0,65.2,77.4,68.3,63.4,97,89,67,30.08,29.81,17,1,22,1.71
2013-6-23,81.1,70.7,64.9,70.4,66.1,63.5,96,86,63,29.91,29.73,12,1,18,0.15
2013-6-24,76.4,69.0,62.9,71.2,65.9,62.0,98,90,76,29.94,29.82,8,0,12,0.23
2013-6-25,85.2,71.1,63.8,76.2,68.3,62.9,98,91,71,29.88,29.72,7,0,7,0.43
2013-6-26,84.5,74.6,69.2,76.6,70.7,65.7,98,88,64,29.82,29.68,15,1,15,0.00
2013-6-27,84.8,71.8,61.5,70.1,62.0,55.3,98,75,39,29.83,29.78,25,2,25,0.00
2013-6-28,75.4,67.5,61.1,64.5,60.7,58.1,92,79,61,29.80,29.73,19,3,21,0.01
2013-6-29,70.5,64.6,60.4,62.6,60.5,55.3,95,87,67,29.96,29.73,17,2,22,0.14
2013-6-30,77.4,62.2,52.0,55.5,51.8,48.8,92,71,38,30.09,29.96,13,2,16,0.00
2013-7-1,82.5,67.2,51.9,63.8,56.7,50.8,98,73,40,30.19,30.11,9,0,10,0.00
2013-7-2,79.9,64.8,54.5,62.5,56.7,53.1,97,78,42,30.15,30.06,13,1,13,0.00
2013-7-3,82.4,65.5,54.1,64.8,57.4,53.0,98,78,40,30.10,29.98,5,0,7,0.00
2013-7-4,87.0,69.7,55.1,64.4,58.2,53.0,95,71,39,30.02,29.92,8,1,11,0.00
2013-7-5,88.8,73.4,59.0,65.8,60.7,56.8,93,68,38,29.97,29.87,11,1,16,0.00
2013-7-6,91.7,77.5,67.6,71.0,64.8,61.5,84,67,41,29.93,29.83,11,1,11,0.00
2013-7-7,91.2,78.8,69.9,75.5,69.2,66.1,91,74,51,29.88,29.80,8,0,10,0.06
2013-7-8,87.0,75.2,69.1,74.7,70.7,67.9,97,87,55,29.96,29.85,7,0,9,0.10
2013-7-9,87.0,75.3,69.0,75.4,70.2,67.8,97,85,60,29.96,29.82,17,1,17,0.80
2013-7-10,77.2,69.8,58.6,68.7,60.4,53.5,94,74,46,30.06,29.89,17,3,19,0.00
2013-7-11,85.5,67.1,55.0,65.1,58.3,54.0,98,77,40,30.14,30.03,5,0,6,0.00
2013-7-12,85.6,73.5,62.5,66.5,61.7,57.8,93,68,48,30.08,29.98,13,1,14,0.00
2013-7-13,75.7,69.1,62.3,67.3,61.8,57.8,95,78,64,30.11,29.97,16,1,16,0.49
2013-7-14,85.0,72.5,63.3,71.1,65.6,60.9,93,80,57,30.20,30.09,8,0,8,0.00
2013-7-15,88.7,72.8,61.5,74.8,66.7,60.5,98,83,53,30.26,30.16,9,0,9,0.09
2013-7-16,92.7,78.1,70.3,75.5,71.2,67.0,98,82,46,30.23,30.17,8,0,9,0.00
2013-7-17,93.7,78.7,69.3,75.8,70.9,68.2,98,80,46,30.27,30.13,7,0,9,0.00
2013-7-18,92.9,80.2,69.3,74.5,70.5,68.1,98,75,49,30.13,29.81,13,1,18,0.00
2013-7-19,84.2,77.7,66.9,73.8,67.7,60.9,95,72,51,29.89,29.74,19,2,19,0.48
2013-7-20,80.5,68.6,60.6,68.5,62.8,59.5,97,83,57,29.95,29.87,8,0,10,0.00
2013-7-21,75.3,66.9,61.9,70.1,64.4,60.5,97,92,75,29.95,29.83,8,0,9,0.20
2013-7-22,88.7,72.5,62.4,75.6,66.4,60.5,97,83,56,29.87,29.66,14,1,18,0.00
2013-7-23,73.5,65.4,57.5,61.0,56.1,53.2,90,73,52,30.01,29.81,15,2,17,0.00
2013-7-24,74.5,62.6,50.9,61.9,56.1,49.5,97,81,55,30.11,30.02,7,0,8,0.00
2013-7-25,81.8,65.2,55.2,69.3,60.9,54.1,97,87,62,30.04,29.94,9,0,14,0.70
2013-7-26,70.5,64.8,56.0,63.2,59.1,49.6,95,83,61,30.06,29.91,17,2,21,0.00
2013-7-27,61.1,54.0,50.4,51.3,48.0,45.2,90,80,62,30.06,29.95,18,3,24,0.02
2013-7-28,68.3,55.8,49.4,55.9,50.0,46.6,95,82,58,30.10,29.97,11,2,13,0.00
2013-7-29,78.3,59.3,46.4,60.9,53.0,45.3,97,82,47,30.17,30.10,6,0,6,0.00
2013-7-30,77.0,65.4,56.6,67.5,60.9,54.9,95,86,65,30.14,30.06,4,0,5,0.00
2013-7-31,77.3,69.0,58.5,66.2,62.4,56.0,97,81,54,30.09,29.98,13,1,13,0.00
2013-8-1,80.8,65.5,51.1,66.2,57.0,49.9,97,77,44,30.07,29.87,10,0,11,0.00
2013-8-2,75.1,64.6,54.5,62.5,58.3,52.8,96,82,49,30.05,29.85,12,1,12,0.00
2013-8-3,75.3,59.4,48.2,58.6,52.4,47.1,97,80,43,30.21,30.05,12,1,12,0.01
2013-8-4,73.6,59.2,47.6,63.7,54.1,46.5,97,85,47,30.26,30.07,4,0,5,0.00
2013-8-5,72.9,63.0,56.5,68.8,61.2,55.1,97,94,85,30.07,29.83,10,0,10,0.43
2013-8-6,85.7,69.2,57.6,69.5,63.6,56.7,98,85,53,29.87,29.72,16,0,27,0.01
2013-8-7,72.9,64.3,59.0,62.0,59.6,54.0,96,86,53,29.97,29.77,14,2,14,0.00
2013-8-8,77.4,62.8,48.6,64.0,55.5,47.5,97,80,49,30.08,30.00,7,0,8,0.01
2013-8-9,76.2,65.2,57.0,61.4,57.4,52.7,96,78,47,30.13,30.01,14,1,16,0.00
2013-8-10,74.9,61.4,51.9,60.9,55.2,50.2,96,82,54,30.20,30.12,8,0,11,0.00
2013-8-11,74.5,64.7,60.5,68.4,62.4,57.9,97,92,76,30.15,30.02,5,0,7,1.06
2013-8-12,76.3,64.9,57.3,65.4,59.4,55.4,98,84,51,30.07,30.00,16,1,17,0.00
2013-8-13,71.7,60.3,51.1,58.2,52.4,46.8,96,78,46,30.21,30.07,12,1,13,0.00
2013-8-14,75.0,57.8,46.2,59.9,51.1,45.1,97,81,45,30.24,30.14,8,0,11,0.00
2013-8-15,78.3,59.4,47.9,59.4,51.9,46.8,97,80,41,30.18,30.11,8,0,8,0.01
2013-8-16,77.8,60.5,49.3,63.6,54.2,48.2,97,83,47,30.23,30.17,7,0,8,0.00
2013-8-17,81.5,61.6,49.9,62.7,54.0,48.8,97,81,42,30.25,30.16,7,0,9,0.01
2013-8-18,80.8,65.9,52.4,63.0,57.6,51.3,97,78,48,30.20,30.06,8,0,12,0.00
2013-8-19,83.2,66.7,55.3,69.9,61.3,54.1,97,84,59,30.08,29.95,9,0,11,0.00
2013-8-20,86.8,73.8,63.0,74.3,67.5,61.0,95,82,64,29.98,29.89,10,1,14,0.00
2013-8-21,85.8,75.3,69.8,74.9,69.4,66.6,90,82,69,29.94,29.89,9,0,10,0.01
2013-8-22,83.3,72.9,61.6,70.3,65.0,60.2,97,79,50,30.11,30.04,7,0,8,1.99
2013-8-23,83.6,67.5,56.2,71.3,63.1,55.0,98,87,61,30.17,30.08,7,0,8,0.01
2013-8-24,86.5,72.9,64.0,76.0,67.9,61.3,95,85,68,30.16,30.02,10,1,14,0.03
2013-8-25,90.8,80.5,75.9,77.7,72.4,69.7,86,77,62,30.08,29.98,15,2,15,0.00
2013-8-26,94.0,82.8,73.9,79.7,74.3,70.4,93,77,57,30.02,29.87,11,1,11,0.00
2013-8-27,92.2,81.7,75.2,78.0,73.4,70.2,94,77,59,29.88,29.79,12,1,12,0.00
2013-8-28,88.0,77.4,69.9,76.8,73.3,68.5,97,88,66,30.01,29.87,12,0,12,0.00
2013-8-29,92.1,77.2,70.0,77.6,71.6,68.8,97,85,52,30.02,29.88,9,0,10,0.00
2013-8-30,81.7,74.6,68.3,75.2,70.3,64.9,96,87,68,29.88,29.82,12,1,12,0.00
2013-8-31,69.1,65.4,62.4,65.8,63.3,61.0,96,93,87,29.88,29.85,3,0,5,0.00
2013-9-1,74.9,70.6,64.4,69.6,63.9,58.1,94,80,62,29.94,29.73,17,3,17,0.01
2013-9-2,64.4,57.7,54.0,58.1,53.9,51.8,95,87,76,30.10,29.94,10,2,12,0.00
2013-9-3,76.7,57.3,42.5,59.9,51.2,41.4,97,83,46,30.15,30.05,7,0,8,0.02
2013-9-4,86.7,64.3,51.2,72.6,59.6,50.1,97,86,59,30.14,30.07,8,0,9,0.00
2013-9-5,80.2,67.4,58.7,69.6,62.7,57.0,95,86,67,30.22,30.14,5,0,8,0.00
2013-9-6,87.9,73.7,63.9,70.1,65.0,62.1,95,77,47,30.15,29.90,15,1,15,0.01
2013-9-7,90.0,75.2,65.8,76.9,68.5,63.1,92,80,61,29.95,29.86,10,1,11,0.00
2013-9-8,76.2,70.5,66.9,68.9,65.5,60.6,92,84,70,30.04,29.91,7,1,9,0.00
2013-9-9,92.3,78.7,68.5,76.7,69.0,65.1,94,75,46,29.90,29.67,12,1,12,0.00
2013-9-10,83.7,72.8,66.7,69.2,66.6,63.7,95,82,54,29.98,29.76,9,0,10,0.00
2013-9-11,83.4,69.6,57.6,66.8,62.5,55.6,97,81,43,30.05,29.97,11,1,13,0.01
2013-9-12,72.3,61.1,50.0,57.5,52.4,47.5,95,75,47,30.23,30.04,18,3,20,0.00
2013-9-13,69.0,51.8,41.3,50.7,45.4,40.0,97,82,45,30.31,30.16,9,0,9,0.00
2013-9-14,75.2,54.2,41.3,56.3,46.6,40.2,97,80,41,30.16,29.90,16,1,16,0.54
2013-9-15,63.6,57.1,54.8,57.3,54.7,53.6,96,92,76,30.18,29.89,12,1,17,0.48
2013-9-16,67.5,51.9,41.4,50.4,45.2,40.1,96,81,43,30.44,30.31,7,0,7,0.01
2013-9-17,62.6,51.3,43.0,58.4,49.0,41.7,96,92,75,30.33,30.01,7,0,11,0.05
2013-9-18,70.4,64.6,59.6,68.9,63.3,58.5,96,95,95,30.01,29.76,6,0,9,0.00
2013-9-19,83.0,71.9,66.2,73.4,68.2,63.5,97,89,68,29.80,29.67,11,1,12,0.06
2013-9-20,66.2,59.8,50.7,63.6,54.3,48.1,92,82,66,29.95,29.77,14,2,18,0.00
2013-9-21,63.4,50.4,43.6,51.9,46.3,42.5,97,87,60,30.02,29.94,11,1,13,0.01
2013-9-22,71.9,52.6,40.0,57.8,47.8,39.0,97,85,58,30.05,29.93,8,0,10,0.00
2013-9-23,71.8,58.0,48.9,56.9,51.2,46.7,93,79,55,30.04,29.93,9,0,13,0.00
2013-9-24,73.9,56.8,47.1,58.7,51.2,45.7,96,83,52,30.01,29.93,9,0,9,0.00
2013-9-25,72.5,54.4,44.4,57.2,49.5,43.3,97,86,52,30.03,29.93,6,0,8,0.01
2013-9-26,79.8,63.0,52.4,65.3,56.2,49.6,94,80,56,30.00,29.91,9,1,10,0.00
2013-9-27,82.0,68.3,61.3,66.7,60.0,55.9,84,76,57,30.00,29.86,11,1,17,0.00
2013-9-28,70.2,64.7,54.8,64.0,58.0,52.4,94,80,69,29.89,29.72,16,2,20,0.11
2013-9-29,73.9,55.6,39.5,53.8,46.2,38.5,97,75,41,30.05,29.91,10,0,17,0.01
2013-9-30,75.4,61.5,50.1,55.7,50.9,46.8,90,70,41,29.92,29.70,18,1,25,0.00
2013-10-1,76.5,62.5,43.5,56.5,50.4,38.6,93,68,27,30.02,29.70,13,1,14,0.00
2013-10-2,75.8,54.2,38.2,55.5,43.9,36.9,97,73,32,30.11,29.87,8,0,9,0.00
2013-10-3,66.8,59.7,56.4,63.7,57.8,54.8,97,94,68,29.96,29.80,16,1,23,0.95
2013-10-4,61.6,59.1,57.1,60.7,58.1,56.3,97,97,94,29.98,29.81,8,1,12,0.30
2013-10-5,65.6,57.5,42.2,61.3,54.6,40.9,97,90,63,29.90,29.76,7,0,9,0.53
2013-10-6,51.7,46.1,40.6,48.5,43.2,39.5,96,90,65,29.88,29.74,15,1,16,0.07
2013-10-7,66.5,48.7,38.9,50.1,43.5,37.8,97,85,42,30.06,29.88,11,1,15,0.00
2013-10-8,75.9,55.1,42.1,50.4,45.2,40.8,97,74,36,30.07,29.95,18,1,19,0.01
2013-10-9,74.5,57.9,48.2,55.4,49.9,45.4,93,76,47,30.12,30.02,13,0,13,0.00
2013-10-10,75.0,55.5,43.6,55.8,48.4,42.3,97,80,45,30.11,29.95,8,0,12,0.00
2013-10-11,74.6,61.4,49.8,59.8,53.8,48.4,96,78,54,29.96,29.72,11,1,16,0.01
2013-10-12,66.5,54.1,38.3,58.2,44.9,36.4,93,72,47,30.23,29.75,18,2,19,0.01
2013-10-13,59.8,42.4,32.0,43.0,35.9,30.7,96,81,40,30.49,30.23,9,0,11,0.01
2013-10-14,57.2,44.6,32.6,46.9,37.8,31.3,96,79,52,30.47,30.00,12,1,14,0.06
2013-10-15,54.8,49.7,46.6,53.7,47.5,44.1,96,92,77,30.00,29.74,12,2,19,0.76
2013-10-16,49.1,44.1,31.9,47.9,41.9,30.7,96,92,82,29.98,29.80,15,3,17,0.01
2013-10-17,57.7,40.4,29.6,45.2,35.9,28.6,97,86,51,29.98,29.83,11,0,13,0.01
2013-10-18,50.8,43.4,31.5,43.7,35.9,29.1,94,77,45,30.02,29.88,23,4,23,0.00
2013-10-19,45.7,37.3,29.8,40.8,34.3,28.2,96,89,71,29.93,29.76,11,1,13,0.13
2013-10-20,51.5,35.8,26.8,43.9,32.7,25.5,96,89,69,29.92,29.69,19,2,19,0.03
2013-10-21,38.6,34.1,23.9,33.9,26.8,21.2,93,75,54,30.03,29.92,20,4,23,0.01
2013-10-22,37.8,26.3,19.7,31.1,23.3,17.9,95,89,73,30.09,30.03,13,2,14,0.01
2013-10-23,38.4,34.0,27.6,31.6,27.1,22.0,95,77,59,30.16,30.06,15,3,17,0.01
2013-10-24,42.3,34.0,28.3,29.5,25.1,22.0,90,70,52,30.39,30.15,16,3,19,0.00
2013-10-25,55.4,36.3,21.2,37.8,28.5,19.4,96,76,48,30.41,29.89,18,2,22,0.00
2013-10-26,52.8,43.2,30.6,38.9,33.1,27.8,90,68,52,30.14,29.86,21,5,22,0.00
2013-10-27,43.4,26.9,23.5,32.8,24.8,21.8,95,92,65,30.11,29.99,11,0,12,0.01
2013-10-28,44.9,38.4,33.0,33.2,29.7,27.4,84,71,55,30.44,30.13,11,2,11,0.00
2013-10-29,48.9,39.7,31.9,39.1,32.5,27.8,86,75,64,30.44,30.11,9,1,13,0.00
2013-10-30,55.6,49.9,44.8,52.2,46.5,39.1,96,88,80,30.12,29.69,7,1,10,0.00
2013-10-31,52.1,44.6,39.6,51.0,42.5,37.0,96,92,88,29.70,29.44,12,2,15,0.01
2013-11-1,50.5,42.6,37.2,39.1,37.5,31.7,92,83,59,29.89,29.45,16,4,19,0.00
2013-11-2,47.9,37.6,26.5,35.2,30.9,24.4,93,78,50,30.19,29.89,14,3,15,0.00
2013-11-3,53.9,38.0,26.8,36.3,30.4,24.8,93,76,49,30.22,30.00,25,2,25,0.01
2013-11-4,47.7,42.9,30.0,45.1,37.2,28.7,96,81,59,30.21,29.95,22,3,22,0.08
2013-11-5,43.2,33.4,25.4,41.4,32.1,24.2,97,95,91,30.30,29.97,16,2,19,0.53
2013-11-6,40.7,33.8,26.0,33.7,29.4,23.9,95,85,53,30.26,29.97,23,7,23,0.04
2013-11-7,41.2,31.7,24.1,33.9,28.1,22.6,94,87,68,30.31,30.24,17,2,18,0.00
2013-11-8,47.7,32.7,20.8,41.8,26.4,19.0,95,80,50,30.30,29.73,16,2,21,0.00
2013-11-9,48.1,42.5,33.2,41.9,35.7,26.9,87,77,61,30.26,29.73,21,5,28,0.01
2013-11-10,43.6,38.0,33.6,31.9,29.4,27.8,80,71,60,30.40,30.25,12,4,15,0.00
2013-11-11,41.4,26.5,16.5,32.2,19.6,10.8,94,75,60,30.78,30.12,21,7,23,0.01
2013-11-12,25.1,16.9,10.3,15.0,10.9,7.0,88,77,64,30.88,30.61,11,2,12,0.00
2013-11-13,46.6,30.7,19.3,33.1,21.2,12.3,76,68,59,30.61,30.01,17,2,21,0.00
2013-11-14,42.7,35.8,30.2,38.5,30.5,24.8,95,81,68,30.01,29.85,9,1,10,0.01
2013-11-15,54.8,36.0,23.2,42.4,31.4,21.4,96,84,61,29.95,29.77,8,1,8,0.01
2013-11-16,57.0,46.4,39.4,54.9,42.9,34.9,96,88,77,29.77,29.30,13,2,16,0.13
2013-11-17,43.2,37.8,33.7,39.6,34.9,27.9,96,89,77,29.88,29.37,28,4,28,0.08
2013-11-18,35.7,30.3,19.8,28.7,24.0,18.0,93,77,62,30.35,29.88,24,6,30,0.00
2013-11-19,45.1,29.6,17.9,30.8,22.9,16.0,94,78,51,30.36,30.08,19,2,19,0.00
2013-11-20,42.1,38.7,33.7,34.2,28.9,23.9,95,70,50,30.10,30.00,18,3,18,0.09
2013-11-21,38.2,33.1,24.9,37.2,31.6,22.7,96,94,87,30.52,30.09,20,4,20,0.06
2013-11-22,29.7,23.1,16.3,23.1,17.4,11.4,93,79,55,30.67,30.52,19,4,19,0.00
2013-11-23,18.9,10.9,2.6,12.0,4.0,-0.6,87,74,61,30.90,30.63,19,6,23,0.00
2013-11-24,25.1,12.3,0.8,14.1,5.1,-2.4,89,74,52,30.85,30.21,18,2,21,0.00
2013-11-25,39.9,31.1,24.2,29.9,22.2,14.1,80,69,59,30.23,30.04,17,4,19,0.00
2013-11-26,33.5,23.3,13.9,24.4,12.7,2.3,74,64,46,30.43,30.13,25,8,28,0.00
2013-11-27,24.6,15.9,6.9,12.4,8.0,3.6,87,71,54,30.46,30.19,8,2,8,0.00
2013-11-28,29.5,22.2,10.0,16.1,13.4,7.2,88,69,55,30.61,30.17,17,3,19,0.00
2013-11-29,32.3,19.6,7.0,21.8,13.6,4.2,91,78,58,30.63,30.28,13,2,16,0.00
2013-11-30,44.3,33.9,23.0,31.5,26.3,19.7,90,74,60,30.28,30.08,12,2,15,0.00
2013-12-1,35.7,28.6,19.8,27.5,24.0,17.6,94,83,69,30.25,30.01,5,1,6,0.00
2013-12-2,40.2,30.9,20.8,33.7,28.1,18.5,94,89,74,30.01,29.67,10,1,12,0.08
2013-12-3,35.5,34.3,32.8,33.9,33.1,31.8,96,95,93,29.81,29.66,7,1,8,0.16
2013-12-4,35.8,31.3,17.6,35.0,29.8,12.2,97,94,80,29.82,29.49,19,2,21,0.15
2013-12-5,17.4,9.5,3.8,12.5,4.2,-1.0,84,78,72,30.48,29.81,19,5,20,0.00
2013-12-6,8.5,1.5,-2.6,1.7,-3.7,-7.8,81,78,71,30.77,30.46,14,4,16,0.00
2013-12-7,7.7,-0.2,-5.5,-0.4,-6.2,-10.5,84,75,62,30.86,30.71,12,3,12,0.00
2013-12-8,14.4,9.1,5.1,10.9,5.3,-0.7,87,84,76,30.72,30.20,9,1,9,0.00
2013-12-9,11.9,2.4,-6.9,9.3,-2.4,-11.1,90,80,68,30.26,30.08,17,2,22,0.00
2013-12-10,14.8,8.8,1.9,11.9,3.9,-3.3,89,80,69,30.33,29.93,19,3,20,0.00
2013-12-11,15.0,1.3,-5.1,11.8,-4.9,-11.3,88,74,62,30.67,30.33,20,5,25,0.00
2013-12-12,21.7,12.3,2.6,14.0,6.7,-3.5,89,78,68,30.53,30.25,13,1,15,0.00
2013-12-13,21.9,16.7,13.6,14.7,12.2,9.5,91,82,69,30.32,30.19,11,1,11,0.00
2013-12-14,16.1,13.0,3.5,11.3,8.7,-1.5,87,83,79,30.32,30.15,14,3,16,0.00
2013-12-15,6.0,2.8,0.4,-1.6,-4.1,-6.1,79,73,63,30.26,30.18,13,4,14,0.00
2013-12-16,17.4,9.2,2.4,14.4,4.0,-5.3,91,79,69,30.25,30.08,9,1,10,0.00
2013-12-17,31.0,23.9,7.5,26.5,18.6,4.4,94,80,65,30.20,30.00,24,4,29,0.00
2013-12-18,38.3,20.1,2.8,30.3,15.7,-0.4,95,84,65,30.19,29.77,13,1,15,0.05
2013-12-19,23.2,20.4,16.2,20.7,16.7,14.0,94,86,79,30.08,29.87,14,3,16,0.00
2013-12-20,21.1,19.4,17.7,17.3,15.5,14.3,88,85,81,30.05,29.93,10,2,11,0.00
2013-12-21,24.4,21.0,18.8,19.8,17.4,15.4,89,86,82,30.03,29.92,13,3,13,0.00
2013-12-22,22.4,17.1,0.9,18.6,13.3,-3.0,88,85,81,30.32,29.95,16,6,16,0.00
2013-12-23,2.9,-2.9,-12.2,-1.2,-7.9,-16.4,83,79,71,30.64,30.32,13,4,16,0.00
2013-12-24,9.8,-4.3,-14.9,4.1,-9.3,-19.2,87,79,55,30.66,30.33,12,1,13,0.00
2013-12-25,28.7,14.9,7.5,25.2,11.8,3.9,92,87,75,30.33,30.15,13,1,19,0.00
2013-12-26,28.9,20.1,10.7,23.9,16.8,8.1,92,87,78,30.27,30.17,4,0,4,0.01
2013-12-27,40.6,22.1,7.2,32.6,18.5,4.5,95,86,73,30.27,30.02,13,1,15,0.05
2013-12-28,41.0,27.9,18.1,33.8,24.5,16.2,96,87,68,30.10,29.76,22,2,22,0.03
2013-12-29,29.5,7.1,-13.1,27.6,1.5,-18.4,93,78,59,30.43,29.93,26,9,31,0.01
2013-12-30,2.2,-9.0,-17.6,-1.8,-13.4,-21.9,86,80,72,30.44,30.32,7,0,7,0.00
2013-12-31,2.4,-3.2,-11.4,-2.4,-7.5,-15.6,87,81,76,30.52,30.34,7,2,9,0.00
2014-1-1,3.5,-1.5,-8.1,-3.4,-8.0,-13.1,79,73,68,30.58,30.48,11,3,12,0.00
2014-1-2,5.2,-2.0,-16.6,-3.5,-8.1,-20.9,82,75,65,30.60,30.49,12,4,13,0.00